Hauptseite
METAR-TAF:

METAR-TAF

Flughäfen :

Hohenfels, Deutschland

Breite: 49-13N, Länge: 011-50E, Höhe: 442 m

Beobachtung

Neuester Wetterbericht von vor 19 Minuten, um 08:38 UTC
Wind 6 kt aus West/Nordwest
Temperatur 19°C
Luftfeuchtigkeit 88%
Luftdruck 1004 hPa
Sichtweite 10 km oder mehr
Durchbrochene Bewölkung in der Höhe von 1200 ft
Durchbrochene Bewölkung in der Höhe von 1700 ft
Durchbrochene Bewölkung in der Höhe von 8500 ft
Leichtregen

METAR: ETIH 280838Z AUTO 29006KT 9999 -RA BKN012 BKN017 BKN085 19/17 A2964 RMK AO2 RAE05RAB06 CIG 012V017 BKN012 V SCT SLP024

Zeit: 10:57 (08:57 UTC)


TAF: fehlend

Wetterbeobachtungen und Prognosen von mehr als 4000 Flughäfen (METAR und TAF Bericht).

Die verfügbaren Stationen werden durch gelbe und rote Markierungen auf der Karte dargestellt.

Führen Sie die Maus auf sie, um den Namen der Station zu sehen.

Darauf klicken, um die Beobachtung von Wetterbeobachtungen und Prognosen zu sehen.

Um die Karte zu ändern : klicken Sie auf den grünen Tasten mit einem schwarzen Kreuz Zum Vergrößern, auf den grünen Button mit einem Gedankenstrich zu verkleinern, oder auf die grünen Pfeile für benachbarte Karten.


METAR-TAF: